Carricitos, Texas
Current Conditions -  °F | °C
As of 3:52 PM on Monday 26 Jan 2015 (Local Time) from KHRL Reporting Station
Clear Clear  
Wind Chill: 76°   Ceiling: Unl
Heat Index: 76°   Visibility: 10mi
Dew Point: 35°   Wind: 5mph
Humidity: 23%   Direction: 130°SE
Pressure: 30.19"   Gusts: NA
Location:  26.1784°N, 97.6678°W
Report Text: KHRL 262152Z 13004KT 10SM CLR 24/02 A3019 RMK AO2 SLP224 T02440017
Loading
Personal Weather Stations






























Interactive Weather Map New forecast layout! Learn more

10-Day Weather Forecast

Advertisements
Track Severe Weather on mobile